Fire Weather Observation
Issued by NWS Grand Junction, CO

Home | Current Version | Previous Version | Text Only | Print | Product List | Glossary Off
Versions: 1 2 3 4 5 6 7 8 9 10 11 12 13 14 15 16 17 18 19 20 21 22 23 24 25 26 27 28 29 30 31 32 33 34 35 36 37 38 39 40 41 42 43 44 45 46 47 48 49 50

000
SHUS65 KGJT 262013
FWOGJT

DAILY FIRE WEATHER OBSERVATION
NATIONAL WEATHER SERVICE GRAND JUNCTION CO
212 PM MDT TUE JUL 26 2016

STATE OF THE WEATHER (W)               1
DRY BULB TEMPERATURE                   93   DEGREES FAHRENHEIT
RELATIVE HUMIDITY (RH)                 18   PERCENT
LIGHTNING ACTIVITY LEVEL
  (LAL - MIDNIGHT TO 2 PM)             1
WIND DIRECTION                         C    DEGREES (C IF CALM)
WIND SPEED                             0    MPH
MAX TEMP (2 PM - 2 PM)                 98   DEGREES FAHRENHEIT
MIN TEMP (2 PM - 2 PM)                 70   DEGREES FAHRENHEIT
MAX RH (2 PM - 2 PM)                   39   PERCENT
MIN RH (2 PM - 2 PM)                   10   PERCENT
PCPN DURATION                          0.0  HOURS
PCPN AMT (2 PM - 2 PM)                 0.0  INCHES
LAL (2 PM - 2 PM)                      1

$$

METAR KGJT 261953Z VRB03KT 10SM SCT080CB 34/06 A3010 RMK AO2 LTG
      DSNT S AND SW SLP107 VCSH T03390061


USA.gov is the U.S. government's official web portal to all federal, state and local government web resources and services.